createdAt,value
2024-05-09T00:00:54.157Z,97495.09
2024-05-09T00:03:24.585Z,97495.09
2024-05-09T00:05:54.930Z,97496.41
2024-05-09T00:08:25.948Z,97493.78
2024-05-09T00:10:56.385Z,97496.88
2024-05-09T00:13:29.644Z,97492.88
2024-05-09T00:16:00.089Z,97489.72
2024-05-09T00:18:30.566Z,97494.75
2024-05-09T00:21:01.234Z,97497.69
2024-05-09T00:23:32.725Z,97491.06
2024-05-09T00:26:03.224Z,97492.38
2024-05-09T00:28:36.210Z,97492.28
2024-05-09T00:31:06.689Z,97496.41
2024-05-09T00:33:37.139Z,97494.81
2024-05-09T00:36:08.254Z,97494.13
2024-05-09T00:38:38.622Z,97488.53
2024-05-09T00:41:08.958Z,97495.72
2024-05-09T00:43:41.936Z,97496.47
2024-05-09T00:46:13.218Z,97495.25
2024-05-09T00:48:44.164Z,97495.91
2024-05-09T00:51:14.841Z,97498.16
2024-05-09T00:53:45.707Z,97498.44
2024-05-09T00:56:16.391Z,97496.25
2024-05-09T00:58:54.335Z,97487.53
2024-05-09T01:01:27.678Z,97489.78
2024-05-09T01:03:58.409Z,97485.50
2024-05-09T01:06:28.795Z,97484.97
2024-05-09T01:08:59.132Z,97488.56
2024-05-09T01:11:36.615Z,97491.31
2024-05-09T01:14:09.686Z,97479.06
2024-05-09T01:16:42.143Z,97488.69
2024-05-09T01:19:25.941Z,97482.13
2024-05-09T01:21:56.403Z,97486.53
2024-05-09T01:24:29.470Z,97483.53
2024-05-09T01:26:59.789Z,97481.72
2024-05-09T01:29:30.133Z,97486.44
2024-05-09T01:32:01.053Z,97471.16
2024-05-09T01:34:31.404Z,97481.06
2024-05-09T01:37:01.734Z,97480.69
2024-05-09T01:39:35.245Z,97479.19
2024-05-09T01:42:05.657Z,97477.84
2024-05-09T01:44:39.005Z,97478.13
2024-05-09T01:47:09.508Z,97481.00
2024-05-09T01:53:40.970Z,97477.84
2024-05-09T01:56:13.967Z,97469.47
2024-05-09T01:58:44.378Z,97475.00
2024-05-09T02:01:14.709Z,97466.44
2024-05-09T02:03:47.813Z,97468.91
2024-05-09T02:06:18.320Z,97461.50
2024-05-09T02:08:48.729Z,97472.09
2024-05-09T02:11:26.023Z,97461.78
2024-05-09T02:13:56.355Z,97463.56
2024-05-09T02:16:26.647Z,97469.09
2024-05-09T02:18:57.018Z,97464.69
2024-05-09T02:21:36.742Z,97459.59
2024-05-09T02:24:07.450Z,97462.47
2024-05-09T02:26:40.394Z,97458.25
2024-05-09T02:29:10.782Z,97456.56
2024-05-09T02:31:41.127Z,97460.28
2024-05-09T02:34:11.739Z,97462.63
2024-05-09T02:36:42.211Z,97465.53
2024-05-09T02:39:10.006Z,97470.91
2024-05-09T02:41:42.930Z,97456.31
2024-05-09T02:44:10.678Z,97453.81
2024-05-09T02:46:40.953Z,97448.72
2024-05-09T02:49:08.746Z,97458.25
2024-05-09T02:51:39.175Z,97455.78
2024-05-09T02:54:07.799Z,97457.72
2024-05-09T02:56:38.163Z,97460.34
2024-05-09T02:59:08.506Z,97461.44
2024-05-09T03:01:40.305Z,97461.28
2024-05-09T03:04:08.154Z,97466.66
2024-05-09T03:06:43.014Z,97453.03
2024-05-09T03:09:10.711Z,97454.00
2024-05-09T03:11:41.169Z,97451.50
2024-05-09T03:14:15.719Z,97446.41
2024-05-09T03:16:45.746Z,97451.78
2024-05-09T03:19:13.539Z,97452.72
2024-05-09T03:21:43.964Z,97451.09
2024-05-09T03:24:11.928Z,97449.59
2024-05-09T03:26:42.241Z,97450.53
2024-05-09T03:29:12.624Z,97449.72
2024-05-09T03:31:43.005Z,97459.38
2024-05-09T03:34:13.455Z,97453.59
2024-05-09T03:36:44.147Z,97453.72
2024-05-09T03:39:14.739Z,97454.53
2024-05-09T03:41:45.035Z,97451.91
2024-05-09T03:44:18.155Z,97456.34
2024-05-09T03:46:45.868Z,97450.28
2024-05-09T03:49:17.996Z,97448.50
2024-05-09T03:51:45.745Z,97444.22
2024-05-09T03:54:16.030Z,97439.81
2024-05-09T03:56:44.496Z,97441.44
2024-05-09T03:59:17.523Z,97443.25
2024-05-09T04:01:45.471Z,97446.81
2024-05-09T04:04:15.935Z,97455.53
2024-05-09T04:06:43.598Z,97454.81
2024-05-09T04:09:13.871Z,97455.53
2024-05-09T04:11:41.745Z,97455.81
2024-05-09T04:14:12.200Z,97455.94
2024-05-09T04:16:42.710Z,97452.47
2024-05-09T04:19:13.130Z,97455.22
2024-05-09T04:21:40.873Z,97453.59
2024-05-09T04:24:12.616Z,97455.22
2024-05-09T04:26:40.337Z,97455.22
2024-05-09T04:29:11.080Z,97454.41
2024-05-09T04:31:38.802Z,97455.38
2024-05-09T04:34:11.821Z,97453.75
2024-05-09T04:36:41.712Z,97457.31
2024-05-09T04:39:13.554Z,97451.13
2024-05-09T04:41:41.283Z,97447.81
2024-05-09T04:44:11.684Z,97453.88
2024-05-09T04:46:39.868Z,97456.34
2024-05-09T04:49:13.105Z,97454.56
2024-05-09T04:51:41.097Z,97453.03
2024-05-09T04:54:22.138Z,97453.31
2024-05-09T04:56:57.593Z,97458.69
2024-05-09T04:59:28.216Z,97454.97
2024-05-09T05:01:56.095Z,97455.66
2024-05-09T05:04:29.901Z,97451.28
2024-05-09T05:06:59.739Z,97450.28
2024-05-09T05:09:32.415Z,97453.88
2024-05-09T05:12:02.187Z,97452.09
2024-05-09T05:14:32.765Z,97453.75
2024-05-09T05:17:00.580Z,97456.34
2024-05-09T05:19:33.662Z,97461.44
2024-05-09T05:22:01.343Z,97464.06
2024-05-09T05:24:31.686Z,97467.50
2024-05-09T05:26:59.383Z,97464.06
2024-05-09T05:29:30.007Z,97462.28
2024-05-09T05:31:57.895Z,97468.19
2024-05-09T05:34:28.348Z,97469.31
2024-05-09T05:36:58.757Z,97477.16
2024-05-09T05:39:29.024Z,97478.09
2024-05-09T05:41:59.339Z,97474.81
2024-05-09T05:44:27.171Z,97476.28
2024-05-09T05:46:57.474Z,97472.88
2024-05-09T05:49:25.294Z,97470.25
2024-05-09T05:51:55.704Z,97479.91
2024-05-09T05:54:26.259Z,97472.88
2024-05-09T05:56:56.583Z,97474.38
2024-05-09T05:59:24.322Z,97476.16
2024-05-09T06:01:54.619Z,97478.78
2024-05-09T06:04:23.591Z,97477.97
2024-05-09T06:06:53.888Z,97481.25
2024-05-09T06:09:21.620Z,97482.91
2024-05-09T06:11:54.795Z,97484.44
2024-05-09T06:14:22.728Z,97482.78
2024-05-09T06:16:54.694Z,97473.25
2024-05-09T06:19:24.978Z,97480.03
2024-05-09T06:21:55.310Z,97470.38
2024-05-09T06:24:22.995Z,97475.59
2024-05-09T06:26:55.938Z,97478.94
2024-05-09T06:29:33.364Z,97476.97
2024-05-09T06:32:03.760Z,97477.94
2024-05-09T06:34:31.747Z,97474.09
2024-05-09T06:37:02.040Z,97481.94
2024-05-09T06:39:29.784Z,97475.59
2024-05-09T06:42:02.806Z,97477.41
2024-05-09T06:44:30.681Z,97481.38
2024-05-09T06:47:01.769Z,97481.38
2024-05-09T06:49:31.731Z,97486.22
2024-05-09T06:52:02.207Z,97488.41
2024-05-09T06:54:30.261Z,97481.28
2024-05-09T06:57:03.313Z,97484.69
2024-05-09T06:59:31.243Z,97484.56
2024-05-09T07:02:01.828Z,97487.31
2024-05-09T07:04:30.141Z,97486.66
2024-05-09T07:07:00.618Z,97485.78
2024-05-09T07:09:28.460Z,97485.78
2024-05-09T07:12:00.108Z,97485.78
2024-05-09T07:14:30.555Z,97496.69
2024-05-09T07:17:01.308Z,97495.56
2024-05-09T07:19:29.492Z,97493.66
2024-05-09T07:22:00.214Z,97494.06
2024-05-09T07:24:27.974Z,97492.13
2024-05-09T07:26:58.511Z,97493.78
2024-05-09T07:29:26.329Z,97491.03
2024-05-09T07:31:59.398Z,97492.66
2024-05-09T07:34:27.313Z,97491.56
2024-05-09T07:36:57.669Z,97484.69
2024-05-09T07:39:25.382Z,97497.50
2024-05-09T07:41:55.716Z,97487.84
2024-05-09T07:44:23.534Z,97493.63
2024-05-09T07:48:13.733Z,97489.91
2024-05-09T07:51:32.157Z,97487.81
2024-05-09T07:53:33.188Z,97483.28
2024-05-09T07:55:22.180Z,97482.16
2024-05-09T07:57:52.579Z,97484.91
2024-05-09T08:00:27.061Z,97482.13
2024-05-09T08:03:01.500Z,97484.03
2024-05-09T08:05:34.891Z,97477.84
2024-05-09T08:08:02.690Z,97477.72
2024-05-09T08:10:35.347Z,97477.56
2024-05-09T08:13:03.240Z,97478.25
2024-05-09T08:15:33.629Z,97475.34
2024-05-09T08:18:01.816Z,97471.75
2024-05-09T08:20:35.500Z,97469.00
2024-05-09T08:23:03.651Z,97472.31
2024-05-09T08:25:33.913Z,97468.56
2024-05-09T08:28:01.703Z,97467.44
2024-05-09T08:30:36.837Z,97470.06
2024-05-09T08:33:07.176Z,97471.59
2024-05-09T08:35:40.787Z,97467.97
2024-05-09T08:38:09.250Z,97464.41
2024-05-09T08:40:39.713Z,97469.50
2024-05-09T08:43:08.511Z,97473.63
2024-05-09T08:45:42.609Z,97474.28
2024-05-09T08:48:13.345Z,97473.47
2024-05-09T08:50:46.853Z,97470.41
2024-05-09T08:53:15.200Z,97471.38
2024-05-09T08:55:47.169Z,97468.47
2024-05-09T08:58:16.815Z,97471.09
2024-05-09T09:00:48.228Z,97469.31
2024-05-09T09:03:19.514Z,97473.41
2024-05-09T09:06:00.436Z,97467.88
2024-05-09T09:08:28.249Z,97462.66
2024-05-09T09:11:00.984Z,97465.97
2024-05-09T09:13:28.860Z,97461.38
2024-05-09T09:16:04.253Z,97468.81
2024-05-09T09:18:33.160Z,97465.34
2024-05-09T09:21:07.421Z,97460.91
2024-05-09T09:23:35.108Z,97457.06
2024-05-09T09:26:05.419Z,97454.03
2024-05-09T09:28:36.807Z,97456.72
2024-05-09T09:31:07.833Z,97450.91
2024-05-09T09:33:36.344Z,97450.44
2024-05-09T09:36:13.668Z,97444.91
2024-05-09T09:38:42.289Z,97442.84
2024-05-09T09:41:13.362Z,97441.69
2024-05-09T09:43:42.932Z,97446.47
2024-05-09T09:46:16.533Z,97445.50
2024-05-09T09:48:44.875Z,97440.94
2024-05-09T09:51:18.456Z,97436.53
2024-05-09T09:53:47.761Z,97434.44
2024-05-09T09:56:20.362Z,97431.81
2024-05-09T09:58:49.032Z,97435.28
2024-05-09T10:01:27.799Z,97428.38
2024-05-09T10:03:55.694Z,97435.41
2024-05-09T10:06:30.276Z,97428.22
2024-05-09T10:08:59.561Z,97423.63
2024-05-09T10:11:39.528Z,97423.31
2024-05-09T10:14:09.770Z,97417.13
2024-05-09T10:16:46.702Z,97416.97
2024-05-09T10:19:24.356Z,97424.84
2024-05-09T10:22:03.749Z,97422.06
2024-05-09T10:24:46.656Z,97418.47
2024-05-09T10:27:17.266Z,97420.09
2024-05-09T10:29:54.309Z,97413.72
2024-05-09T10:32:24.757Z,97408.44
2024-05-09T10:35:06.820Z,97402.50
2024-05-09T10:37:40.104Z,97408.75
2024-05-09T10:40:14.239Z,97397.72
2024-05-09T10:42:52.217Z,97399.88
2024-05-09T10:45:20.157Z,97400.25
2024-05-09T10:47:51.476Z,97397.34
2024-05-09T10:50:25.710Z,97389.00
2024-05-09T10:53:01.856Z,97389.34
2024-05-09T10:55:29.644Z,97378.06
2024-05-09T10:57:59.988Z,97382.31
2024-05-09T11:00:35.689Z,97382.47
2024-05-09T11:03:07.508Z,97378.13
2024-05-09T11:05:36.387Z,97381.28
2024-05-09T11:08:10.391Z,97386.06
2024-05-09T11:10:38.875Z,97380.22
2024-05-09T11:13:09.276Z,97376.59
2024-05-09T11:15:40.324Z,97370.84
2024-05-09T11:18:11.568Z,97375.78
2024-05-09T11:20:39.360Z,97372.28
2024-05-09T11:23:20.438Z,97374.75
2024-05-09T11:25:51.265Z,97372.22
2024-05-09T11:28:21.995Z,97373.81
2024-05-09T11:30:50.858Z,97370.38
2024-05-09T11:33:22.286Z,97369.59
2024-05-09T11:35:50.060Z,97361.88
2024-05-09T11:38:23.060Z,97365.00
2024-05-09T11:40:50.954Z,97364.41
2024-05-09T11:43:21.385Z,97359.53
2024-05-09T11:45:49.191Z,97357.41
2024-05-09T11:48:20.097Z,97356.75
2024-05-09T11:50:47.865Z,97354.78
2024-05-09T11:53:18.231Z,97349.22
2024-05-09T11:55:48.740Z,97346.47
2024-05-09T11:58:21.439Z,97350.75
2024-05-09T12:00:49.337Z,97351.53
2024-05-09T12:03:19.712Z,97351.25
2024-05-09T12:05:47.498Z,97343.38
2024-05-09T12:08:17.957Z,97343.06
2024-05-09T12:10:49.374Z,97336.19
2024-05-09T12:13:19.998Z,97334.06
2024-05-09T12:15:47.848Z,97334.41
2024-05-09T12:18:18.197Z,97333.59
2024-05-09T12:20:45.971Z,97325.72
2024-05-09T12:23:16.300Z,97327.47
2024-05-09T12:25:44.694Z,97327.13
2024-05-09T12:28:18.766Z,97317.97
2024-05-09T12:30:46.714Z,97320.28
2024-05-09T12:33:17.350Z,97318.97
2024-05-09T12:35:47.337Z,97307.50
2024-05-09T12:38:19.510Z,97318.50
2024-05-09T12:40:48.739Z,97310.78
2024-05-09T12:43:21.759Z,97296.03
2024-05-09T12:45:49.615Z,97296.59
2024-05-09T12:48:20.175Z,97310.22
2024-05-09T12:50:48.204Z,97307.78
2024-05-09T12:53:18.567Z,97300.88
2024-05-09T12:55:53.581Z,97294.47
2024-05-09T12:58:30.078Z,97295.28
2024-05-09T13:00:57.901Z,97297.75
2024-05-09T13:03:28.380Z,97301.88
2024-05-09T13:05:56.125Z,97296.97
2024-05-09T13:08:26.641Z,97296.44
2024-05-09T13:10:54.438Z,97294.66
2024-05-09T13:13:24.824Z,97294.84
2024-05-09T13:15:55.236Z,97294.69
2024-05-09T13:18:25.620Z,97288.09
2024-05-09T13:20:53.286Z,97281.66
2024-05-09T13:23:23.675Z,97278.53
2024-05-09T13:25:51.375Z,97278.06
2024-05-09T13:28:22.799Z,97285.94
2024-05-09T13:30:50.530Z,97279.72
2024-05-09T13:33:23.516Z,97280.22
2024-05-09T13:35:51.400Z,97278.59
2024-05-09T13:38:22.520Z,97274.31
2024-05-09T13:40:50.798Z,97276.13
2024-05-09T13:43:22.286Z,97266.44
2024-05-09T13:45:50.315Z,97261.16
2024-05-09T13:48:23.464Z,97265.47
2024-05-09T13:50:51.232Z,97265.78
2024-05-09T13:53:21.784Z,97259.72
2024-05-09T13:55:49.927Z,97257.78
2024-05-09T13:58:20.286Z,97254.78
2024-05-09T14:00:49.221Z,97257.09
2024-05-09T14:03:21.187Z,97246.75
2024-05-09T14:05:52.313Z,97252.81
2024-05-09T14:08:23.394Z,97249.69
2024-05-09T14:10:51.362Z,97244.91
2024-05-09T14:13:22.391Z,97243.63
2024-05-09T14:15:50.489Z,97240.50
2024-05-09T14:18:21.228Z,97235.91
2024-05-09T14:20:51.579Z,97232.78
2024-05-09T14:23:21.868Z,97232.78
2024-05-09T14:25:52.183Z,97234.91
2024-05-09T14:28:24.680Z,97241.16
2024-05-09T14:30:52.580Z,97230.81
2024-05-09T14:33:26.852Z,97225.56
2024-05-09T14:35:57.355Z,97219.47
2024-05-09T14:38:27.787Z,97225.38
2024-05-09T14:40:55.751Z,97216.19
2024-05-09T14:43:26.592Z,97217.84
2024-05-09T14:45:56.141Z,97214.69
2024-05-09T14:48:27.242Z,97218.81
2024-05-09T14:50:57.582Z,97213.56
2024-05-09T14:53:28.499Z,97218.47
2024-05-09T14:55:56.381Z,97207.66
2024-05-09T14:58:26.804Z,97201.38
2024-05-09T15:00:54.681Z,97199.25
2024-05-09T15:03:25.123Z,97202.06
2024-05-09T15:05:53.343Z,97203.84
2024-05-09T15:08:26.522Z,97201.72
2024-05-09T15:10:54.532Z,97188.09
2024-05-09T15:13:25.170Z,97187.75
2024-05-09T15:15:53.143Z,97186.09
2024-05-09T15:18:23.696Z,97187.59
2024-05-09T15:20:51.553Z,97185.47
2024-05-09T15:23:22.519Z,97181.00
2024-05-09T15:25:53.108Z,97173.97
2024-05-09T15:28:23.777Z,97170.84
2024-05-09T15:30:51.494Z,97177.41
2024-05-09T15:33:21.805Z,97171.84
2024-05-09T15:35:51.204Z,97165.25
2024-05-09T15:38:22.265Z,97170.03
2024-05-09T15:40:52.819Z,97163.88
2024-05-09T15:43:23.225Z,97160.88
2024-05-09T15:45:51.076Z,97164.50
2024-05-09T15:48:21.856Z,97171.03
2024-05-09T15:50:49.654Z,97161.84
2024-05-09T15:53:21.018Z,97162.94
2024-05-09T15:55:48.671Z,97166.03
2024-05-09T15:58:22.038Z,97165.34
2024-05-09T16:00:52.058Z,97164.84
2024-05-09T16:03:23.369Z,97164.25
2024-05-09T16:05:51.964Z,97170.00
2024-05-09T16:08:22.625Z,97156.34
2024-05-09T16:10:51.206Z,97156.50
2024-05-09T16:13:24.217Z,97158.16
2024-05-09T16:15:52.139Z,97156.66
2024-05-09T16:18:22.703Z,97156.13
2024-05-09T16:20:50.946Z,97157.28
2024-05-09T16:23:21.299Z,97152.19
2024-05-09T16:25:49.027Z,97159.22
2024-05-09T16:28:21.729Z,97157.56
2024-05-09T16:30:54.084Z,97157.72
2024-05-09T16:33:26.131Z,97151.09
2024-05-09T16:35:54.290Z,97151.97
2024-05-09T16:38:24.694Z,97155.34
2024-05-09T16:40:52.627Z,97143.66
2024-05-09T16:43:23.440Z,97146.09
2024-05-09T16:45:54.086Z,97148.72
2024-05-09T16:48:24.634Z,97141.81
2024-05-09T16:50:53.099Z,97141.31
2024-05-09T16:53:23.409Z,97147.53
2024-05-09T16:55:51.161Z,97142.44
2024-05-09T16:58:21.828Z,97146.88
2024-05-09T17:00:50.969Z,97145.22
2024-05-09T17:03:25.030Z,97141.78
2024-05-09T17:05:52.960Z,97141.78
2024-05-09T17:08:23.457Z,97146.19
2024-05-09T17:10:51.304Z,97144.41
2024-05-09T17:13:22.787Z,97146.19
2024-05-09T17:15:53.441Z,97150.63
2024-05-09T17:18:26.677Z,97148.81
2024-05-09T17:20:55.059Z,97146.19
2024-05-09T17:23:25.337Z,97151.13
2024-05-09T17:25:52.993Z,97146.03
2024-05-09T17:28:23.353Z,97150.66
2024-05-09T17:30:51.110Z,97147.13
2024-05-09T17:33:21.501Z,97145.69
2024-05-09T17:35:52.004Z,97150.25
2024-05-09T17:38:23.031Z,97152.06
2024-05-09T17:40:52.037Z,97146.97
2024-05-09T17:43:22.644Z,97152.22
2024-05-09T17:45:53.090Z,97144.50
2024-05-09T17:48:21.823Z,97143.69
2024-05-09T17:50:54.811Z,97144.66
2024-05-09T17:53:22.535Z,97146.47
2024-05-09T17:55:53.962Z,97154.34
2024-05-09T17:58:22.090Z,97153.50
2024-05-09T18:00:52.588Z,97152.84
2024-05-09T18:03:22.932Z,97151.19
2024-05-09T18:05:56.082Z,97152.03
2024-05-09T18:08:24.266Z,97150.38
2024-05-09T18:10:55.562Z,97156.59
2024-05-09T18:13:23.669Z,97153.16
2024-05-09T18:15:54.118Z,97160.19
2024-05-09T18:18:21.987Z,97155.94
2024-05-09T18:20:55.002Z,97163.13
2024-05-09T18:23:23.281Z,97159.69
2024-05-09T18:25:54.833Z,97157.22
2024-05-09T18:28:23.485Z,97159.19
2024-05-09T18:30:53.948Z,97156.34
2024-05-09T18:33:21.848Z,97157.53
2024-05-09T18:35:54.847Z,97157.78
2024-05-09T18:38:26.864Z,97158.97
2024-05-09T18:40:57.534Z,97156.88
2024-05-09T18:43:31.136Z,97160.69
2024-05-09T18:46:06.396Z,97162.16
2024-05-09T18:48:34.500Z,97159.38
2024-05-09T18:51:14.729Z,97158.88
2024-05-09T18:53:45.202Z,97161.50
2024-05-09T18:56:12.990Z,97162.50
2024-05-09T18:58:43.278Z,97155.44
2024-05-09T19:01:11.354Z,97157.53
2024-05-09T19:03:42.204Z,97159.44
2024-05-09T19:06:12.774Z,97161.91
2024-05-09T19:08:43.071Z,97156.28
2024-05-09T19:11:10.739Z,97165.31
2024-05-09T19:13:41.112Z,97163.81
2024-05-09T19:16:08.900Z,97170.19
2024-05-09T19:18:39.406Z,97167.56
2024-05-09T19:21:07.331Z,97173.94
2024-05-09T19:23:47.078Z,97181.94
2024-05-09T19:26:19.977Z,97183.91
2024-05-09T19:28:50.292Z,97189.31
2024-05-09T19:31:18.047Z,97195.53
2024-05-09T19:33:48.434Z,97197.34
2024-05-09T19:36:19.356Z,97194.88
2024-05-09T19:38:52.295Z,97196.69
2024-05-09T19:41:20.013Z,97198.47
2024-05-09T19:43:50.273Z,97201.25
2024-05-09T19:46:18.155Z,97208.44
2024-05-09T19:48:48.712Z,97208.44
2024-05-09T19:51:16.670Z,97204.16
2024-05-09T19:53:46.922Z,97204.31
2024-05-09T19:56:19.917Z,97203.50
2024-05-09T19:58:47.629Z,97208.91
2024-05-09T20:01:17.990Z,97208.09
2024-05-09T20:03:45.880Z,97207.25
2024-05-09T20:06:16.487Z,97210.72
2024-05-09T20:08:44.200Z,97212.66
2024-05-09T20:11:14.553Z,97214.47
2024-05-09T20:13:44.872Z,97215.44
2024-05-09T20:16:15.303Z,97212.97
2024-05-09T20:18:43.221Z,97216.44
2024-05-09T20:21:13.735Z,97223.44
2024-05-09T20:23:43.986Z,97227.88
2024-05-09T20:26:11.698Z,97226.22
2024-05-09T20:28:42.251Z,97224.56
2024-05-09T20:31:19.567Z,97223.75
2024-05-09T20:33:50.089Z,97222.94
2024-05-09T20:36:17.781Z,97216.69
2024-05-09T20:38:48.112Z,97227.72
2024-05-09T20:41:15.768Z,97212.56
2024-05-09T20:43:46.115Z,97217.19
2024-05-09T20:46:17.403Z,97220.66
2024-05-09T20:48:49.453Z,97225.31
2024-05-09T20:51:17.198Z,97221.38
2024-05-09T20:53:47.532Z,97226.16
2024-05-09T20:56:15.219Z,97217.97
2024-05-09T20:58:45.566Z,97221.13
2024-05-09T21:01:13.409Z,97211.94
2024-05-09T21:03:47.538Z,97215.91
2024-05-09T21:06:15.310Z,97212.31
2024-05-09T21:08:45.845Z,97218.56
2024-05-09T21:11:13.533Z,97210.84
2024-05-09T21:13:44.502Z,97221.84
2024-05-09T21:16:14.510Z,97219.22
2024-05-09T21:18:48.395Z,97210.22
2024-05-09T21:21:16.188Z,97207.59
2024-05-09T21:23:47.030Z,97201.50
2024-05-09T21:26:15.335Z,97205.97
2024-05-09T21:28:45.998Z,97209.75
2024-05-09T21:31:13.797Z,97205.47
2024-05-09T21:33:44.678Z,97207.13
2024-05-09T21:36:15.143Z,97208.75
2024-05-09T21:38:46.151Z,97206.28
2024-05-09T21:41:14.002Z,97207.94
2024-05-09T21:43:44.697Z,97208.91
2024-05-09T21:46:12.659Z,97207.94
2024-05-09T21:48:44.674Z,97207.28
2024-05-09T21:51:18.086Z,97214.31
2024-05-09T21:53:50.924Z,97210.06
2024-05-09T21:56:18.803Z,97208.25
2024-05-09T21:58:49.137Z,97209.75
2024-05-09T22:01:17.183Z,97207.13
2024-05-09T22:03:48.249Z,97200.88
2024-05-09T22:06:18.776Z,97194.81
2024-05-09T22:08:49.063Z,97198.63
2024-05-09T22:11:16.820Z,97202.22
2024-05-09T22:13:47.082Z,97202.38
2024-05-09T22:16:14.726Z,97199.75
2024-05-09T22:18:45.407Z,97201.41
2024-05-09T22:21:13.364Z,97212.53
2024-05-09T22:23:46.324Z,97206.13
2024-05-09T22:26:14.016Z,97202.84
2024-05-09T22:28:45.433Z,97209.59
2024-05-09T22:31:13.117Z,97205.97
2024-05-09T22:33:46.381Z,97207.78
2024-05-09T22:36:18.172Z,97202.84
2024-05-09T22:38:54.237Z,97204.34
2024-05-09T22:41:24.443Z,97206.81
2024-05-09T22:43:55.577Z,97202.19
2024-05-09T22:46:23.476Z,97196.94
2024-05-09T22:48:54.200Z,97207.63
2024-05-09T22:51:22.023Z,97195.81
2024-05-09T22:53:55.033Z,97195.13
2024-05-09T22:56:27.140Z,97197.44
2024-05-09T22:58:57.651Z,97192.84
2024-05-09T23:01:26.898Z,97197.78
2024-05-09T23:03:57.575Z,97198.44
2024-05-09T23:06:25.585Z,97192.88
2024-05-09T23:08:58.547Z,97187.78
2024-05-09T23:11:26.345Z,97198.00
2024-05-09T23:13:56.675Z,97194.38
2024-05-09T23:16:24.405Z,97187.50
2024-05-09T23:18:54.815Z,97195.06
2024-05-09T23:21:23.928Z,97194.56
2024-05-09T23:23:54.584Z,97199.03
2024-05-09T23:26:25.322Z,97192.94
2024-05-09T23:28:55.851Z,97189.81
2024-05-09T23:31:23.592Z,97194.41
2024-05-09T23:33:55.287Z,97200.47
2024-05-09T23:36:23.170Z,97199.34
2024-05-09T23:38:53.475Z,97204.44
2024-05-09T23:41:21.665Z,97189.66
2024-05-09T23:43:54.604Z,97191.00
2024-05-09T23:46:22.554Z,97181.78
2024-05-09T23:48:53.111Z,97184.44
2024-05-09T23:51:21.930Z,97185.56
2024-05-09T23:53:52.248Z,97182.94
2024-05-09T23:56:21.575Z,97181.28
2024-05-09T23:58:54.523Z,97184.75
